Impacts TAF Board
For situational awareness. Not to be used for flight planning purposes.
IDs:

KSLC - Salt Lake City Intl, UT, US

Issued at 2028 UTC 20 Oct 2018
Updated at 2058 UTC 20 Oct 2018
Potential Impact None Slight Moderate High
Time<<21/09Z 21/10Z 21/11Z 21/12Z 21/13Z 21/14Z 21/15Z 21/16Z 21/17Z 21/18Z 21/19Z 21/20Z 21/21Z>>
Type PRVL PRVL PRVL PRVL PRVL PRVL PRVL PRVL PRVL PRVL PRVL PRVL PRVL
VIS >6 >6 >6 >6 >6 >6 >6 >6 >6 >6 >6 >6 >6
CIG -- -- -- -- -- -- -- -- -- -- -- 200 200
Cover SCT SCT SCT SCT SCT SCT SCT SCT SCT SCT SCT BKN BKN
FltCat VFR VFR VFR VFR VFR VFR VFR VFR VFR VFR VFR VFR VFR
WX -- -- -- -- -- -- -- -- -- -- -- -- --
WDir 150 150 150 150 150 150 150 150 150 150 150 300 300
WSpd 5 5 5 5 5 5 5 5 5 5 5 8 8
WGst -- -- -- -- -- -- -- -- -- -- -- -- --
Raw TAF
KSLC 202028Z 2020/2124 33008KT P6SM SKC
  FM210300 15005KT P6SM FEW100 SCT200
  FM212000 30008KT P6SM SCT080 BKN200


METAR Board
Radar Display
Forecast Discussion
For situational awareness. Not to be used for flight planning purposes.